sensor_id;sensor_type;location;lat;lon;timestamp;temperature;humidity
46508;DHT22;32223;53.654;10.014;2022-07-18T00:01:28;14.10;99.90
46508;DHT22;32223;53.654;10.014;2022-07-18T00:03:54;14.10;99.90
46508;DHT22;32223;53.654;10.014;2022-07-18T00:06:20;14.10;99.90
46508;DHT22;32223;53.654;10.014;2022-07-18T00:08:45;14.10;99.90
46508;DHT22;32223;53.654;10.014;2022-07-18T00:11:11;14.20;99.90
46508;DHT22;32223;53.654;10.014;2022-07-18T00:13:37;14.20;99.90
46508;DHT22;32223;53.654;10.014;2022-07-18T00:16:03;14.30;99.90
46508;DHT22;32223;53.654;10.014;2022-07-18T00:18:29;14.30;99.90
46508;DHT22;32223;53.654;10.014;2022-07-18T00:20:55;14.30;99.90
46508;DHT22;32223;53.654;10.014;2022-07-18T00:23:21;14.30;99.90
46508;DHT22;32223;53.654;10.014;2022-07-18T00:25:47;14.30;99.90
46508;DHT22;32223;53.654;10.014;2022-07-18T00:28:12;14.20;99.90
46508;DHT22;32223;53.654;10.014;2022-07-18T00:30:39;14.30;99.90
46508;DHT22;32223;53.654;10.014;2022-07-18T00:33:05;14.20;99.90
46508;DHT22;32223;53.654;10.014;2022-07-18T00:35:31;14.20;99.90
46508;DHT22;32223;53.654;10.014;2022-07-18T00:37:56;14.20;99.90
46508;DHT22;32223;53.654;10.014;2022-07-18T00:40:22;14.20;99.90
46508;DHT22;32223;53.654;10.014;2022-07-18T00:42:48;14.20;99.90
46508;DHT22;32223;53.654;10.014;2022-07-18T00:45:13;14.10;99.90
46508;DHT22;32223;53.654;10.014;2022-07-18T00:47:39;14.10;99.90
46508;DHT22;32223;53.654;10.014;2022-07-18T00:50:06;14.10;99.90
46508;DHT22;32223;53.654;10.014;2022-07-18T00:52:33;14.10;99.90
46508;DHT22;32223;53.654;10.014;2022-07-18T00:54:59;14.10;99.90
46508;DHT22;32223;53.654;10.014;2022-07-18T00:57:26;14.00;99.90
46508;DHT22;32223;53.654;10.014;2022-07-18T00:59:53;14.00;99.90
46508;DHT22;32223;53.654;10.014;2022-07-18T01:02:38;14.00;99.90
46508;DHT22;32223;53.654;10.014;2022-07-18T01:05:05;14.00;99.90
46508;DHT22;32223;53.654;10.014;2022-07-18T01:07:32;14.00;99.90
46508;DHT22;32223;53.654;10.014;2022-07-18T01:09:58;14.00;99.90
46508;DHT22;32223;53.654;10.014;2022-07-18T01:12:26;14.00;99.90
46508;DHT22;32223;53.654;10.014;2022-07-18T01:14:52;14.00;99.90
46508;DHT22;32223;53.654;10.014;2022-07-18T01:17:19;14.00;99.90
46508;DHT22;32223;53.654;10.014;2022-07-18T01:19:45;13.90;99.90
46508;DHT22;32223;53.654;10.014;2022-07-18T01:22:12;13.90;99.90
46508;DHT22;32223;53.654;10.014;2022-07-18T01:24:39;13.80;99.90
46508;DHT22;32223;53.654;10.014;2022-07-18T01:27:05;13.80;99.90
46508;DHT22;32223;53.654;10.014;2022-07-18T01:29:30;13.80;99.90
46508;DHT22;32223;53.654;10.014;2022-07-18T01:31:56;13.80;99.90
46508;DHT22;32223;53.654;10.014;2022-07-18T01:34:23;13.80;99.90
46508;DHT22;32223;53.654;10.014;2022-07-18T01:36:48;13.70;99.90
46508;DHT22;32223;53.654;10.014;2022-07-18T01:39:14;13.80;99.90
46508;DHT22;32223;53.654;10.014;2022-07-18T01:41:40;13.80;99.90
46508;DHT22;32223;53.654;10.014;2022-07-18T01:44:06;13.70;99.90
46508;DHT22;32223;53.654;10.014;2022-07-18T01:46:32;13.70;99.90
46508;DHT22;32223;53.654;10.014;2022-07-18T01:48:58;13.70;99.90
46508;DHT22;32223;53.654;10.014;2022-07-18T01:51:23;13.70;99.90
46508;DHT22;32223;53.654;10.014;2022-07-18T01:53:57;13.70;99.90
46508;DHT22;32223;53.654;10.014;2022-07-18T01:56:25;13.70;99.90
46508;DHT22;32223;53.654;10.014;2022-07-18T01:58:51;13.60;99.90
46508;DHT22;32223;53.654;10.014;2022-07-18T02:01:16;13.60;99.90
46508;DHT22;32223;53.654;10.014;2022-07-18T02:03:42;13.60;99.90
46508;DHT22;32223;53.654;10.014;2022-07-18T02:06:08;13.60;99.90
46508;DHT22;32223;53.654;10.014;2022-07-18T02:08:33;13.60;99.90
46508;DHT22;32223;53.654;10.014;2022-07-18T02:10:59;13.50;99.90
46508;DHT22;32223;53.654;10.014;2022-07-18T02:13:25;13.60;99.90
46508;DHT22;32223;53.654;10.014;2022-07-18T02:15:50;13.60;99.90
46508;DHT22;32223;53.654;10.014;2022-07-18T02:18:16;13.60;99.90
46508;DHT22;32223;53.654;10.014;2022-07-18T02:20:42;13.60;99.90
46508;DHT22;32223;53.654;10.014;2022-07-18T02:23:07;13.60;99.90
46508;DHT22;32223;53.654;10.014;2022-07-18T02:25:34;13.60;99.90
46508;DHT22;32223;53.654;10.014;2022-07-18T02:28:00;13.60;99.90
46508;DHT22;32223;53.654;10.014;2022-07-18T02:30:26;13.70;99.90
46508;DHT22;32223;53.654;10.014;2022-07-18T02:32:51;13.70;99.90
46508;DHT22;32223;53.654;10.014;2022-07-18T02:35:17;13.70;99.90
46508;DHT22;32223;53.654;10.014;2022-07-18T02:37:43;13.70;99.90
46508;DHT22;32223;53.654;10.014;2022-07-18T02:40:10;13.70;99.90
46508;DHT22;32223;53.654;10.014;2022-07-18T02:42:37;13.70;99.90
46508;DHT22;32223;53.654;10.014;2022-07-18T02:45:04;13.70;99.90
46508;DHT22;32223;53.654;10.014;2022-07-18T02:47:30;13.60;99.90
46508;DHT22;32223;53.654;10.014;2022-07-18T02:49:56;13.70;99.90
46508;DHT22;32223;53.654;10.014;2022-07-18T02:52:21;13.70;99.90
46508;DHT22;32223;53.654;10.014;2022-07-18T02:54:47;13.60;99.90
46508;DHT22;32223;53.654;10.014;2022-07-18T02:57:13;13.60;99.90
46508;DHT22;32223;53.654;10.014;2022-07-18T02:59:38;13.60;99.90
46508;DHT22;32223;53.654;10.014;2022-07-18T03:02:05;13.60;99.90
46508;DHT22;32223;53.654;10.014;2022-07-18T03:04:31;13.60;99.90
46508;DHT22;32223;53.654;10.014;2022-07-18T03:06:56;13.60;99.90
46508;DHT22;32223;53.654;10.014;2022-07-18T03:09:22;13.60;99.90
46508;DHT22;32223;53.654;10.014;2022-07-18T03:11:48;13.60;99.90
46508;DHT22;32223;53.654;10.014;2022-07-18T03:14:14;13.60;99.90
46508;DHT22;32223;53.654;10.014;2022-07-18T03:16:39;13.60;99.90
46508;DHT22;32223;53.654;10.014;2022-07-18T03:19:05;13.60;99.90
46508;DHT22;32223;53.654;10.014;2022-07-18T03:21:31;13.60;99.90
46508;DHT22;32223;53.654;10.014;2022-07-18T03:23:56;13.60;99.90
46508;DHT22;32223;53.654;10.014;2022-07-18T03:26:22;13.60;99.90
46508;DHT22;32223;53.654;10.014;2022-07-18T03:28:48;13.60;99.90
46508;DHT22;32223;53.654;10.014;2022-07-18T03:31:13;13.60;99.90
46508;DHT22;32223;53.654;10.014;2022-07-18T03:33:39;13.60;99.90
46508;DHT22;32223;53.654;10.014;2022-07-18T03:36:05;13.60;99.90
46508;DHT22;32223;53.654;10.014;2022-07-18T03:38:31;13.70;99.90
46508;DHT22;32223;53.654;10.014;2022-07-18T03:40:57;13.70;99.90
46508;DHT22;32223;53.654;10.014;2022-07-18T03:43:23;13.70;99.90
46508;DHT22;32223;53.654;10.014;2022-07-18T03:45:48;13.80;99.90
46508;DHT22;32223;53.654;10.014;2022-07-18T03:48:14;13.80;99.90
46508;DHT22;32223;53.654;10.014;2022-07-18T03:50:40;13.80;99.90
46508;DHT22;32223;53.654;10.014;2022-07-18T03:53:06;13.90;99.90
46508;DHT22;32223;53.654;10.014;2022-07-18T03:55:31;13.90;99.90
46508;DHT22;32223;53.654;10.014;2022-07-18T03:57:57;14.00;99.90
46508;DHT22;32223;53.654;10.014;2022-07-18T04:00:22;14.00;99.90
46508;DHT22;32223;53.654;10.014;2022-07-18T04:02:48;14.10;99.90
46508;DHT22;32223;53.654;10.014;2022-07-18T04:05:15;14.10;99.90
46508;DHT22;32223;53.654;10.014;2022-07-18T04:07:41;14.20;99.90
46508;DHT22;32223;53.654;10.014;2022-07-18T04:10:08;14.20;99.90
46508;DHT22;32223;53.654;10.014;2022-07-18T04:12:34;14.20;99.90
46508;DHT22;32223;53.654;10.014;2022-07-18T04:15:00;14.30;99.90
46508;DHT22;32223;53.654;10.014;2022-07-18T04:17:26;14.30;99.90
46508;DHT22;32223;53.654;10.014;2022-07-18T04:19:52;14.40;99.90
46508;DHT22;32223;53.654;10.014;2022-07-18T04:22:17;14.40;99.90
46508;DHT22;32223;53.654;10.014;2022-07-18T04:24:43;14.40;99.90
46508;DHT22;32223;53.654;10.014;2022-07-18T04:27:08;14.40;99.90
46508;DHT22;32223;53.654;10.014;2022-07-18T04:29:34;14.50;99.90
46508;DHT22;32223;53.654;10.014;2022-07-18T04:32:02;14.50;99.90
46508;DHT22;32223;53.654;10.014;2022-07-18T04:34:27;14.50;99.90
46508;DHT22;32223;53.654;10.014;2022-07-18T04:36:53;14.50;99.90
46508;DHT22;32223;53.654;10.014;2022-07-18T04:39:19;14.50;99.90
46508;DHT22;32223;53.654;10.014;2022-07-18T04:41:44;14.60;99.90
46508;DHT22;32223;53.654;10.014;2022-07-18T04:44:10;14.60;99.90
46508;DHT22;32223;53.654;10.014;2022-07-18T04:46:36;14.60;99.90
46508;DHT22;32223;53.654;10.014;2022-07-18T04:49:02;14.60;99.90
46508;DHT22;32223;53.654;10.014;2022-07-18T04:51:28;14.70;99.90
46508;DHT22;32223;53.654;10.014;2022-07-18T04:53:53;14.70;99.90
46508;DHT22;32223;53.654;10.014;2022-07-18T04:56:21;14.80;99.90
46508;DHT22;32223;53.654;10.014;2022-07-18T04:58:46;14.90;99.90
46508;DHT22;32223;53.654;10.014;2022-07-18T05:01:12;15.00;99.90
46508;DHT22;32223;53.654;10.014;2022-07-18T05:03:38;15.10;99.90
46508;DHT22;32223;53.654;10.014;2022-07-18T05:06:03;15.30;99.90
46508;DHT22;32223;53.654;10.014;2022-07-18T05:08:29;15.40;99.90
46508;DHT22;32223;53.654;10.014;2022-07-18T05:10:55;15.50;99.90
46508;DHT22;32223;53.654;10.014;2022-07-18T05:13:20;15.60;99.90
46508;DHT22;32223;53.654;10.014;2022-07-18T05:15:46;15.70;99.90
46508;DHT22;32223;53.654;10.014;2022-07-18T05:18:11;15.80;99.90
46508;DHT22;32223;53.654;10.014;2022-07-18T05:20:38;15.80;99.90
46508;DHT22;32223;53.654;10.014;2022-07-18T05:23:03;15.90;99.90
46508;DHT22;32223;53.654;10.014;2022-07-18T05:25:29;16.00;99.90
46508;DHT22;32223;53.654;10.014;2022-07-18T05:27:54;16.10;99.90
46508;DHT22;32223;53.654;10.014;2022-07-18T05:30:21;16.10;99.90
46508;DHT22;32223;53.654;10.014;2022-07-18T05:32:48;16.10;99.90
46508;DHT22;32223;53.654;10.014;2022-07-18T05:35:15;16.10;99.90
46508;DHT22;32223;53.654;10.014;2022-07-18T05:37:42;16.10;99.90
46508;DHT22;32223;53.654;10.014;2022-07-18T05:40:10;16.20;99.90
46508;DHT22;32223;53.654;10.014;2022-07-18T05:42:36;16.20;99.90
46508;DHT22;32223;53.654;10.014;2022-07-18T05:45:02;16.20;99.90
46508;DHT22;32223;53.654;10.014;2022-07-18T05:47:28;16.30;99.90
46508;DHT22;32223;53.654;10.014;2022-07-18T05:49:54;16.40;99.90
46508;DHT22;32223;53.654;10.014;2022-07-18T05:52:19;16.50;99.90
46508;DHT22;32223;53.654;10.014;2022-07-18T05:54:45;16.60;99.90
46508;DHT22;32223;53.654;10.014;2022-07-18T05:57:11;16.70;99.90
46508;DHT22;32223;53.654;10.014;2022-07-18T05:59:36;16.80;99.90
46508;DHT22;32223;53.654;10.014;2022-07-18T06:02:02;16.90;99.90
46508;DHT22;32223;53.654;10.014;2022-07-18T06:04:27;17.10;99.90
46508;DHT22;32223;53.654;10.014;2022-07-18T06:06:53;17.20;99.90
46508;DHT22;32223;53.654;10.014;2022-07-18T06:09:19;17.30;99.90
46508;DHT22;32223;53.654;10.014;2022-07-18T06:11:44;17.40;99.90
46508;DHT22;32223;53.654;10.014;2022-07-18T06:14:10;17.50;99.90
46508;DHT22;32223;53.654;10.014;2022-07-18T06:16:36;17.60;99.90
46508;DHT22;32223;53.654;10.014;2022-07-18T06:19:02;17.70;99.90
46508;DHT22;32223;53.654;10.014;2022-07-18T06:21:28;17.70;99.90
46508;DHT22;32223;53.654;10.014;2022-07-18T06:23:54;17.80;99.90
46508;DHT22;32223;53.654;10.014;2022-07-18T06:26:20;17.80;99.90
46508;DHT22;32223;53.654;10.014;2022-07-18T06:28:45;17.90;99.90
46508;DHT22;32223;53.654;10.014;2022-07-18T06:31:11;17.90;99.90
46508;DHT22;32223;53.654;10.014;2022-07-18T06:33:37;18.00;99.90
46508;DHT22;32223;53.654;10.014;2022-07-18T06:36:04;18.10;99.90
46508;DHT22;32223;53.654;10.014;2022-07-18T06:38:31;18.30;99.90
46508;DHT22;32223;53.654;10.014;2022-07-18T06:40:57;18.40;99.90
46508;DHT22;32223;53.654;10.014;2022-07-18T06:43:22;18.50;99.90
46508;DHT22;32223;53.654;10.014;2022-07-18T06:45:48;18.50;99.90
46508;DHT22;32223;53.654;10.014;2022-07-18T06:48:15;18.60;99.90
46508;DHT22;32223;53.654;10.014;2022-07-18T06:50:41;18.60;99.90
46508;DHT22;32223;53.654;10.014;2022-07-18T06:53:06;18.70;99.90
46508;DHT22;32223;53.654;10.014;2022-07-18T06:55:32;18.80;99.90
46508;DHT22;32223;53.654;10.014;2022-07-18T06:57:58;19.00;99.90
46508;DHT22;32223;53.654;10.014;2022-07-18T07:00:24;19.10;99.90
46508;DHT22;32223;53.654;10.014;2022-07-18T07:02:49;19.20;99.90
46508;DHT22;32223;53.654;10.014;2022-07-18T07:05:17;19.30;99.90
46508;DHT22;32223;53.654;10.014;2022-07-18T07:07:43;19.50;99.90
46508;DHT22;32223;53.654;10.014;2022-07-18T07:10:10;19.50;99.90
46508;DHT22;32223;53.654;10.014;2022-07-18T07:12:44;19.70;99.90
46508;DHT22;32223;53.654;10.014;2022-07-18T07:15:10;20.00;99.90
46508;DHT22;32223;53.654;10.014;2022-07-18T07:17:37;20.20;99.90
46508;DHT22;32223;53.654;10.014;2022-07-18T07:20:07;20.30;99.90
46508;DHT22;32223;53.654;10.014;2022-07-18T07:22:48;20.60;99.90
46508;DHT22;32223;53.654;10.014;2022-07-18T07:25:15;20.80;99.90
46508;DHT22;32223;53.654;10.014;2022-07-18T07:27:41;21.00;99.90
46508;DHT22;32223;53.654;10.014;2022-07-18T07:30:08;21.20;99.90
46508;DHT22;32223;53.654;10.014;2022-07-18T07:32:35;21.30;99.90
46508;DHT22;32223;53.654;10.014;2022-07-18T07:35:01;21.40;99.90
46508;DHT22;32223;53.654;10.014;2022-07-18T07:37:27;21.60;99.90
46508;DHT22;32223;53.654;10.014;2022-07-18T07:39:53;21.70;99.90
46508;DHT22;32223;53.654;10.014;2022-07-18T07:42:18;21.80;99.90
46508;DHT22;32223;53.654;10.014;2022-07-18T07:44:44;21.80;99.90
46508;DHT22;32223;53.654;10.014;2022-07-18T07:47:09;21.80;99.90
46508;DHT22;32223;53.654;10.014;2022-07-18T07:49:35;21.90;99.90
46508;DHT22;32223;53.654;10.014;2022-07-18T07:52:02;22.00;99.90
46508;DHT22;32223;53.654;10.014;2022-07-18T07:54:28;22.10;99.90
46508;DHT22;32223;53.654;10.014;2022-07-18T07:56:53;22.30;99.90
46508;DHT22;32223;53.654;10.014;2022-07-18T07:59:19;22.30;99.90
46508;DHT22;32223;53.654;10.014;2022-07-18T08:01:44;22.30;99.90
46508;DHT22;32223;53.654;10.014;2022-07-18T08:04:10;22.40;99.90
46508;DHT22;32223;53.654;10.014;2022-07-18T08:06:35;22.40;99.90
46508;DHT22;32223;53.654;10.014;2022-07-18T08:09:01;22.50;99.90
46508;DHT22;32223;53.654;10.014;2022-07-18T08:11:27;22.60;99.90
46508;DHT22;32223;53.654;10.014;2022-07-18T08:13:52;22.70;99.90
46508;DHT22;32223;53.654;10.014;2022-07-18T08:16:19;22.80;99.90
46508;DHT22;32223;53.654;10.014;2022-07-18T08:18:45;23.00;99.90
46508;DHT22;32223;53.654;10.014;2022-07-18T08:21:10;23.30;99.90
46508;DHT22;32223;53.654;10.014;2022-07-18T08:23:36;23.30;99.90
46508;DHT22;32223;53.654;10.014;2022-07-18T08:26:02;23.50;99.90
46508;DHT22;32223;53.654;10.014;2022-07-18T08:28:27;23.60;99.90
46508;DHT22;32223;53.654;10.014;2022-07-18T08:30:53;23.70;99.90
46508;DHT22;32223;53.654;10.014;2022-07-18T08:33:19;23.90;99.90
46508;DHT22;32223;53.654;10.014;2022-07-18T08:35:44;24.00;99.90
46508;DHT22;32223;53.654;10.014;2022-07-18T08:38:10;24.10;99.90
46508;DHT22;32223;53.654;10.014;2022-07-18T08:40:38;24.10;99.90
46508;DHT22;32223;53.654;10.014;2022-07-18T08:43:03;24.20;99.90
46508;DHT22;32223;53.654;10.014;2022-07-18T08:45:29;24.10;99.90
46508;DHT22;32223;53.654;10.014;2022-07-18T08:47:55;24.10;99.90
46508;DHT22;32223;53.654;10.014;2022-07-18T08:50:22;24.20;99.90
46508;DHT22;32223;53.654;10.014;2022-07-18T08:52:48;24.40;99.90
46508;DHT22;32223;53.654;10.014;2022-07-18T08:55:14;24.60;99.90
46508;DHT22;32223;53.654;10.014;2022-07-18T08:57:40;24.80;99.90
46508;DHT22;32223;53.654;10.014;2022-07-18T09:00:10;24.70;99.90
46508;DHT22;32223;53.654;10.014;2022-07-18T09:02:36;24.80;99.90
46508;DHT22;32223;53.654;10.014;2022-07-18T09:05:03;24.90;99.90
46508;DHT22;32223;53.654;10.014;2022-07-18T09:07:32;24.80;99.90
46508;DHT22;32223;53.654;10.014;2022-07-18T09:09:59;24.80;99.90
46508;DHT22;32223;53.654;10.014;2022-07-18T09:12:27;24.80;99.90
46508;DHT22;32223;53.654;10.014;2022-07-18T09:14:53;24.90;99.90
46508;DHT22;32223;53.654;10.014;2022-07-18T09:17:27;24.90;99.90
46508;DHT22;32223;53.654;10.014;2022-07-18T09:22:37;25.00;99.90
46508;DHT22;32223;53.654;10.014;2022-07-18T09:27:35;24.90;99.90
46508;DHT22;32223;53.654;10.014;2022-07-18T09:32:45;25.00;99.90
46508;DHT22;32223;53.654;10.014;2022-07-18T09:35:14;25.00;99.90
46508;DHT22;32223;53.654;10.014;2022-07-18T09:37:51;25.10;99.90
46508;DHT22;32223;53.654;10.014;2022-07-18T09:40:20;25.20;99.90
46508;DHT22;32223;53.654;10.014;2022-07-18T09:42:50;25.40;99.90
46508;DHT22;32223;53.654;10.014;2022-07-18T09:45:24;25.50;99.90
46508;DHT22;32223;53.654;10.014;2022-07-18T09:47:57;25.60;99.90
46508;DHT22;32223;53.654;10.014;2022-07-18T09:50:28;25.50;99.90
46508;DHT22;32223;53.654;10.014;2022-07-18T09:53:02;25.60;99.90
46508;DHT22;32223;53.654;10.014;2022-07-18T09:55:28;25.60;99.90
46508;DHT22;32223;53.654;10.014;2022-07-18T09:58:04;25.80;99.90
46508;DHT22;32223;53.654;10.014;2022-07-18T10:00:33;26.00;99.90
46508;DHT22;32223;53.654;10.014;2022-07-18T10:03:00;26.20;99.90
46508;DHT22;32223;53.654;10.014;2022-07-18T10:05:28;26.20;99.50
46508;DHT22;32223;53.654;10.014;2022-07-18T10:07:54;26.00;99.40
46508;DHT22;32223;53.654;10.014;2022-07-18T10:10:22;26.10;99.60
46508;DHT22;32223;53.654;10.014;2022-07-18T10:12:54;26.10;99.90
46508;DHT22;32223;53.654;10.014;2022-07-18T10:15:26;25.90;99.60
46508;DHT22;32223;53.654;10.014;2022-07-18T10:17:52;25.90;99.20
46508;DHT22;32223;53.654;10.014;2022-07-18T10:20:25;25.90;99.40
46508;DHT22;32223;53.654;10.014;2022-07-18T10:22:53;26.30;99.10
46508;DHT22;32223;53.654;10.014;2022-07-18T10:25:21;26.30;98.90
46508;DHT22;32223;53.654;10.014;2022-07-18T10:28:06;26.40;99.30
46508;DHT22;32223;53.654;10.014;2022-07-18T10:30:38;26.40;99.60
46508;DHT22;32223;53.654;10.014;2022-07-18T10:39:14;26.80;98.60
46508;DHT22;32223;53.654;10.014;2022-07-18T10:57:28;27.50;94.90
46508;DHT22;32223;53.654;10.014;2022-07-18T11:00:18;27.60;93.50
46508;DHT22;32223;53.654;10.014;2022-07-18T11:03:09;27.70;92.60
46508;DHT22;32223;53.654;10.014;2022-07-18T11:05:41;27.70;92.60
46508;DHT22;32223;53.654;10.014;2022-07-18T11:16:17;27.80;89.20
46508;DHT22;32223;53.654;10.014;2022-07-18T11:21:17;27.60;90.10
46508;DHT22;32223;53.654;10.014;2022-07-18T11:23:45;27.60;90.40
46508;DHT22;32223;53.654;10.014;2022-07-18T11:26:23;27.80;90.30
46508;DHT22;32223;53.654;10.014;2022-07-18T11:28:57;27.90;90.50
46508;DHT22;32223;53.654;10.014;2022-07-18T11:31:23;28.10;90.40
46508;DHT22;32223;53.654;10.014;2022-07-18T11:33:49;28.20;90.10
46508;DHT22;32223;53.654;10.014;2022-07-18T11:36:17;28.20;91.20
46508;DHT22;32223;53.654;10.014;2022-07-18T11:39:10;28.30;89.60
46508;DHT22;32223;53.654;10.014;2022-07-18T11:41:37;28.20;86.10
46508;DHT22;32223;53.654;10.014;2022-07-18T11:44:05;28.20;88.20
46508;DHT22;32223;53.654;10.014;2022-07-18T11:46:41;28.20;87.70
46508;DHT22;32223;53.654;10.014;2022-07-18T11:49:06;28.30;89.10
46508;DHT22;32223;53.654;10.014;2022-07-18T11:51:37;28.50;88.30
46508;DHT22;32223;53.654;10.014;2022-07-18T11:54:04;28.60;83.20
46508;DHT22;32223;53.654;10.014;2022-07-18T11:56:30;28.70;88.40
46508;DHT22;32223;53.654;10.014;2022-07-18T11:58:55;28.80;84.00
46508;DHT22;32223;53.654;10.014;2022-07-18T12:01:32;28.80;82.60
46508;DHT22;32223;53.654;10.014;2022-07-18T12:03:59;28.90;80.10
46508;DHT22;32223;53.654;10.014;2022-07-18T12:06:25;28.90;83.10
46508;DHT22;32223;53.654;10.014;2022-07-18T12:08:54;28.80;86.10
46508;DHT22;32223;53.654;10.014;2022-07-18T12:11:29;28.90;85.50
46508;DHT22;32223;53.654;10.014;2022-07-18T12:16:37;28.90;79.90
46508;DHT22;32223;53.654;10.014;2022-07-18T12:19:09;28.80;79.20
46508;DHT22;32223;53.654;10.014;2022-07-18T12:21:56;28.50;77.80
46508;DHT22;32223;53.654;10.014;2022-07-18T12:29:54;28.50;78.60
46508;DHT22;32223;53.654;10.014;2022-07-18T12:32:23;28.50;78.50
46508;DHT22;32223;53.654;10.014;2022-07-18T12:35:04;28.50;79.80
46508;DHT22;32223;53.654;10.014;2022-07-18T12:37:30;28.50;79.00
46508;DHT22;32223;53.654;10.014;2022-07-18T12:40:05;28.50;78.50
46508;DHT22;32223;53.654;10.014;2022-07-18T12:42:36;28.80;79.20
46508;DHT22;32223;53.654;10.014;2022-07-18T12:45:03;29.00;78.70
46508;DHT22;32223;53.654;10.014;2022-07-18T12:47:29;29.30;80.00
46508;DHT22;32223;53.654;10.014;2022-07-18T12:49:55;29.70;79.80
46508;DHT22;32223;53.654;10.014;2022-07-18T12:52:22;29.90;78.10
46508;DHT22;32223;53.654;10.014;2022-07-18T12:54:49;30.10;76.00
46508;DHT22;32223;53.654;10.014;2022-07-18T12:57:15;30.40;76.30
46508;DHT22;32223;53.654;10.014;2022-07-18T12:59:40;30.80;79.90
46508;DHT22;32223;53.654;10.014;2022-07-18T13:02:06;31.20;74.90
46508;DHT22;32223;53.654;10.014;2022-07-18T13:04:32;31.60;74.60
46508;DHT22;32223;53.654;10.014;2022-07-18T13:06:57;31.70;72.10
46508;DHT22;32223;53.654;10.014;2022-07-18T13:09:23;31.60;72.10
46508;DHT22;32223;53.654;10.014;2022-07-18T13:11:48;31.40;72.80
46508;DHT22;32223;53.654;10.014;2022-07-18T13:14:15;31.30;70.40
46508;DHT22;32223;53.654;10.014;2022-07-18T13:16:45;31.20;72.00
46508;DHT22;32223;53.654;10.014;2022-07-18T13:19:15;31.20;70.00
46508;DHT22;32223;53.654;10.014;2022-07-18T13:21:42;30.90;69.70
46508;DHT22;32223;53.654;10.014;2022-07-18T13:24:08;30.60;70.70
46508;DHT22;32223;53.654;10.014;2022-07-18T13:26:34;30.50;71.30
46508;DHT22;32223;53.654;10.014;2022-07-18T13:28:59;30.20;72.70
46508;DHT22;32223;53.654;10.014;2022-07-18T13:31:25;30.00;71.70
46508;DHT22;32223;53.654;10.014;2022-07-18T13:33:51;29.90;71.60
46508;DHT22;32223;53.654;10.014;2022-07-18T13:36:17;29.60;71.90
46508;DHT22;32223;53.654;10.014;2022-07-18T13:38:43;29.50;72.40
46508;DHT22;32223;53.654;10.014;2022-07-18T13:41:10;29.60;71.90
46508;DHT22;32223;53.654;10.014;2022-07-18T13:43:37;29.70;72.30
46508;DHT22;32223;53.654;10.014;2022-07-18T13:46:08;29.60;72.80
46508;DHT22;32223;53.654;10.014;2022-07-18T13:48:34;29.80;72.50
46508;DHT22;32223;53.654;10.014;2022-07-18T13:51:00;29.80;71.30
46508;DHT22;32223;53.654;10.014;2022-07-18T13:53:26;30.10;72.20
46508;DHT22;32223;53.654;10.014;2022-07-18T13:55:52;30.60;70.90
46508;DHT22;32223;53.654;10.014;2022-07-18T13:58:17;31.00;71.40
46508;DHT22;32223;53.654;10.014;2022-07-18T14:00:44;31.20;71.20
46508;DHT22;32223;53.654;10.014;2022-07-18T14:03:10;31.80;70.00
46508;DHT22;32223;53.654;10.014;2022-07-18T14:05:37;32.60;71.20
46508;DHT22;32223;53.654;10.014;2022-07-18T14:08:03;33.30;66.60
46508;DHT22;32223;53.654;10.014;2022-07-18T14:10:30;33.50;64.10
46508;DHT22;32223;53.654;10.014;2022-07-18T14:12:56;34.00;62.00
46508;DHT22;32223;53.654;10.014;2022-07-18T14:15:21;34.50;60.00
46508;DHT22;32223;53.654;10.014;2022-07-18T14:17:47;35.10;58.50
46508;DHT22;32223;53.654;10.014;2022-07-18T14:20:13;35.70;56.00
46508;DHT22;32223;53.654;10.014;2022-07-18T14:22:40;35.90;54.70
46508;DHT22;32223;53.654;10.014;2022-07-18T14:25:07;36.40;53.70
46508;DHT22;32223;53.654;10.014;2022-07-18T14:27:33;36.20;53.30
46508;DHT22;32223;53.654;10.014;2022-07-18T14:29:59;35.90;52.90
46508;DHT22;32223;53.654;10.014;2022-07-18T14:32:26;35.70;52.70
46508;DHT22;32223;53.654;10.014;2022-07-18T14:34:52;35.10;52.80
46508;DHT22;32223;53.654;10.014;2022-07-18T14:37:17;34.60;53.90
46508;DHT22;32223;53.654;10.014;2022-07-18T14:39:43;33.90;55.20
46508;DHT22;32223;53.654;10.014;2022-07-18T14:42:09;33.50;55.10
46508;DHT22;32223;53.654;10.014;2022-07-18T14:44:35;33.00;56.50
46508;DHT22;32223;53.654;10.014;2022-07-18T14:47:00;32.60;55.80
46508;DHT22;32223;53.654;10.014;2022-07-18T14:49:26;32.30;56.80
46508;DHT22;32223;53.654;10.014;2022-07-18T14:51:52;32.30;57.30
46508;DHT22;32223;53.654;10.014;2022-07-18T14:54:17;32.40;57.00
46508;DHT22;32223;53.654;10.014;2022-07-18T14:56:43;32.70;59.00
46508;DHT22;32223;53.654;10.014;2022-07-18T14:59:08;33.00;56.50
46508;DHT22;32223;53.654;10.014;2022-07-18T15:01:34;32.90;57.20
46508;DHT22;32223;53.654;10.014;2022-07-18T15:04:00;32.80;56.90
46508;DHT22;32223;53.654;10.014;2022-07-18T15:06:26;33.00;57.00
46508;DHT22;32223;53.654;10.014;2022-07-18T15:08:52;33.50;56.40
46508;DHT22;32223;53.654;10.014;2022-07-18T15:11:17;34.00;56.60
46508;DHT22;32223;53.654;10.014;2022-07-18T15:13:44;35.20;57.30
46508;DHT22;32223;53.654;10.014;2022-07-18T15:16:10;35.50;55.40
46508;DHT22;32223;53.654;10.014;2022-07-18T15:18:36;36.30;54.00
46508;DHT22;32223;53.654;10.014;2022-07-18T15:21:02;36.60;52.60
46508;DHT22;32223;53.654;10.014;2022-07-18T15:23:28;36.60;52.90
46508;DHT22;32223;53.654;10.014;2022-07-18T15:25:54;36.80;51.80
46508;DHT22;32223;53.654;10.014;2022-07-18T15:28:20;36.90;51.00
46508;DHT22;32223;53.654;10.014;2022-07-18T15:30:50;36.60;50.30
46508;DHT22;32223;53.654;10.014;2022-07-18T15:33:16;36.10;50.60
46508;DHT22;32223;53.654;10.014;2022-07-18T15:35:42;36.20;50.80
46508;DHT22;32223;53.654;10.014;2022-07-18T15:38:08;36.60;51.00
46508;DHT22;32223;53.654;10.014;2022-07-18T15:40:34;37.00;50.10
46508;DHT22;32223;53.654;10.014;2022-07-18T15:43:00;36.60;49.20
46508;DHT22;32223;53.654;10.014;2022-07-18T15:45:26;36.70;50.00
46508;DHT22;32223;53.654;10.014;2022-07-18T15:47:52;36.70;49.90
46508;DHT22;32223;53.654;10.014;2022-07-18T15:50:18;36.40;49.70
46508;DHT22;32223;53.654;10.014;2022-07-18T15:52:44;36.20;49.80
46508;DHT22;32223;53.654;10.014;2022-07-18T15:55:10;36.10;49.40
46508;DHT22;32223;53.654;10.014;2022-07-18T15:57:36;36.10;49.00
46508;DHT22;32223;53.654;10.014;2022-07-18T16:00:03;36.50;50.20
46508;DHT22;32223;53.654;10.014;2022-07-18T16:02:29;36.70;49.30